Time;durP1;ratioP1;P1;durP2;ratioP2;P2;SDS_P1;SDS_P2;PMS_P1;PMS_P2;Temp;Humidity;BMP_temperature;BMP_pressure;BME280_temperature;BME280_humidity;BME280_pressure;Samples;Min_cycle;Max_cycle;Signal;HPM_P1;HPM_P2
2021/11/21 00:01:58;;;;;;;23.92;12.00;;;9.70;99.10;;;;;;4991526;28;20030;-77
2021/11/21 00:04:23;;;;;;;24.48;11.80;;;9.70;99.10;;;;;;4991354;28;20030;-77
2021/11/21 00:06:49;;;;;;;19.63;8.98;;;9.70;99.10;;;;;;4993235;28;20491;-77
2021/11/21 00:09:15;;;;;;;20.98;10.18;;;9.70;99.10;;;;;;4992733;28;20030;-77
2021/11/21 00:11:41;;;;;;;24.27;11.60;;;9.70;99.00;;;;;;4993107;28;20313;-77
2021/11/21 00:14:07;;;;;;;25.13;11.57;;;9.70;99.00;;;;;;4992828;28;20477;-77
2021/11/21 00:16:33;;;;;;;23.55;11.45;;;9.70;99.00;;;;;;4992571;28;20058;-77
2021/11/21 00:18:59;;;;;;;22.55;11.40;;;9.80;99.10;;;;;;4993066;28;20023;-77
2021/11/21 00:21:25;;;;;;;26.35;11.57;;;9.70;99.00;;;;;;4992457;28;20101;-77
2021/11/21 00:23:51;;;;;;;19.80;10.55;;;9.70;99.10;;;;;;4993040;28;20490;-76
2021/11/21 00:26:16;;;;;;;23.02;11.30;;;9.80;99.10;;;;;;4991135;28;20382;-77
2021/11/21 00:28:42;;;;;;;24.48;11.15;;;9.70;99.00;;;;;;4992603;28;20038;-77
2021/11/21 00:31:08;;;;;;;17.92;9.75;;;9.70;99.00;;;;;;4993041;28;20038;-76
2021/11/21 00:33:34;;;;;;;22.63;10.52;;;9.70;99.10;;;;;;4993014;28;20026;-77
2021/11/21 00:36:00;;;;;;;24.45;11.68;;;9.80;99.10;;;;;;4991685;28;20041;-77
2021/11/21 00:38:26;;;;;;;24.33;12.10;;;9.80;99.00;;;;;;4993291;28;20034;-76
2021/11/21 00:40:52;;;;;;;20.38;10.52;;;9.70;99.00;;;;;;4995439;28;20495;-77
2021/11/21 00:43:20;;;;;;;21.17;11.07;;;9.70;99.10;;;;;;4995081;28;20098;-77
2021/11/21 00:45:46;;;;;;;23.13;11.27;;;9.70;99.10;;;;;;4996583;28;20022;-76
2021/11/21 00:48:18;;;;;;;19.67;9.98;;;9.70;99.00;;;;;;4996083;28;20122;-76
2021/11/21 00:50:43;;;;;;;20.75;9.43;;;9.70;99.00;;;;;;4996599;28;20026;-76
2021/11/21 00:53:10;;;;;;;25.88;10.93;;;9.70;99.00;;;;;;4996484;28;20023;-77
2021/11/21 00:55:42;;;;;;;20.42;9.85;;;9.70;99.00;;;;;;4996497;28;20018;-76
2021/11/21 00:58:11;;;;;;;20.88;10.23;;;9.70;99.00;;;;;;4996646;28;20026;-77
2021/11/21 01:00:40;;;;;;;25.33;12.52;;;9.70;99.00;;;;;;4995261;28;20029;-77
2021/11/21 01:03:08;;;;;;;25.38;11.23;;;9.70;99.10;;;;;;4994769;28;20026;-76
2021/11/21 01:05:34;;;;;;;24.67;12.38;;;9.60;99.10;;;;;;4994362;28;20051;-77
2021/11/21 01:08:00;;;;;;;22.83;11.00;;;9.70;99.20;;;;;;4994941;28;20427;-76
2021/11/21 01:10:26;;;;;;;22.33;10.88;;;9.70;99.20;;;;;;4995397;28;20458;-77
2021/11/21 01:12:54;;;;;;;25.00;11.93;;;9.70;99.10;;;;;;4996208;28;20022;-77
2021/11/21 01:15:22;;;;;;;26.05;11.23;;;9.70;99.10;;;;;;4994338;28;20109;-76
2021/11/21 01:17:49;;;;;;;23.05;10.93;;;9.70;99.10;;;;;;4996152;28;20030;-77
2021/11/21 01:20:16;;;;;;;24.67;12.00;;;9.70;99.10;;;;;;4995268;28;20052;-77
2021/11/21 01:22:43;;;;;;;26.35;13.05;;;9.60;99.20;;;;;;4996014;28;20022;-77
2021/11/21 01:25:12;;;;;;;22.98;11.15;;;9.60;99.20;;;;;;4996076;28;20502;-77
2021/11/21 01:27:39;;;;;;;21.83;9.75;;;9.70;99.20;;;;;;4994805;28;20483;-75
2021/11/21 01:30:07;;;;;;;22.77;11.52;;;9.70;99.20;;;;;;4994571;28;20164;-77
2021/11/21 01:32:33;;;;;;;26.70;11.48;;;9.70;99.20;;;;;;4995490;28;20316;-76
2021/11/21 01:34:59;;;;;;;27.33;12.10;;;9.70;99.20;;;;;;4994600;28;20411;-77
2021/11/21 01:37:24;;;;;;;20.70;10.57;;;9.70;99.20;;;;;;4993915;28;20050;-76
2021/11/21 01:39:50;;;;;;;22.33;10.63;;;9.70;99.20;;;;;;4995616;28;20039;-77
2021/11/21 01:42:16;;;;;;;19.52;8.93;;;9.70;99.20;;;;;;4995123;28;20508;-77
2021/11/21 01:44:41;;;;;;;19.35;9.60;;;9.70;99.20;;;;;;4994381;28;20019;-77
2021/11/21 01:47:08;;;;;;;20.20;10.05;;;9.70;99.20;;;;;;4994142;28;20459;-75
2021/11/21 01:49:34;;;;;;;19.17;10.82;;;9.70;99.10;;;;;;4992951;28;20019;-76
2021/11/21 01:52:00;;;;;;;21.85;10.07;;;9.70;99.10;;;;;;4994147;28;20126;-76
2021/11/21 01:54:26;;;;;;;24.60;11.13;;;9.70;99.20;;;;;;4994837;28;20053;-75
2021/11/21 01:56:52;;;;;;;21.55;10.63;;;9.70;99.10;;;;;;4995403;28;20391;-75
2021/11/21 01:59:18;;;;;;;25.38;12.13;;;9.70;99.20;;;;;;4994514;28;20437;-75
2021/11/21 02:01:44;;;;;;;23.13;11.88;;;9.70;99.20;;;;;;4995190;28;20109;-75
2021/11/21 02:04:10;;;;;;;26.40;12.98;;;9.70;99.20;;;;;;4994850;28;20023;-76
2021/11/21 02:06:36;;;;;;;25.02;11.30;;;9.60;99.30;;;;;;4993145;28;20043;-75
2021/11/21 02:09:04;;;;;;;29.00;12.15;;;9.60;99.30;;;;;;4994940;28;20026;-75
2021/11/21 02:11:30;;;;;;;27.25;12.27;;;9.60;99.20;;;;;;4993299;28;20026;-75
2021/11/21 02:13:56;;;;;;;23.08;11.07;;;9.60;99.20;;;;;;4993377;28;20027;-75
2021/11/21 02:16:25;;;;;;;32.20;12.70;;;9.70;99.20;;;;;;4993071;28;20122;-76
2021/11/21 02:18:51;;;;;;;27.13;11.85;;;9.70;99.20;;;;;;4995212;28;20030;-75
2021/11/21 02:21:18;;;;;;;26.83;12.95;;;9.70;99.20;;;;;;4993416;28;20033;-75
2021/11/21 02:23:45;;;;;;;28.58;13.27;;;9.70;99.20;;;;;;4993502;28;20076;-76
2021/11/21 02:26:13;;;;;;;30.58;13.25;;;9.60;99.20;;;;;;4993160;28;20046;-75
2021/11/21 02:28:40;;;;;;;29.27;13.45;;;9.60;99.20;;;;;;4992877;28;20462;-75
2021/11/21 02:31:06;;;;;;;24.90;10.80;;;9.60;99.20;;;;;;4994760;28;20077;-76
2021/11/21 02:33:32;;;;;;;26.08;12.57;;;9.70;99.30;;;;;;4994123;28;20038;-76
2021/11/21 02:36:00;;;;;;;26.77;12.00;;;9.70;99.20;;;;;;4994460;28;20030;-76
2021/11/21 02:38:28;;;;;;;25.80;12.02;;;9.70;99.20;;;;;;4994052;28;20066;-76
2021/11/21 02:40:56;;;;;;;30.85;13.02;;;9.70;99.20;;;;;;4994126;28;20023;-76
2021/11/21 02:43:23;;;;;;;25.70;12.45;;;9.70;99.10;;;;;;4993986;28;20026;-76
2021/11/21 02:45:50;;;;;;;29.25;11.65;;;9.70;99.20;;;;;;4994468;28;20038;-76
2021/11/21 02:48:22;;;;;;;25.42;12.40;;;9.70;99.20;;;;;;4992893;28;20132;-76
2021/11/21 02:50:49;;;;;;;30.30;12.13;;;9.70;99.20;;;;;;4994720;28;20022;-76
2021/11/21 02:53:17;;;;;;;30.67;13.80;;;9.70;99.10;;;;;;4994137;28;20033;-76
2021/11/21 02:55:43;;;;;;;29.35;11.63;;;9.70;99.20;;;;;;4992452;28;20026;-77
2021/11/21 02:58:08;;;;;;;27.67;12.85;;;9.70;99.20;;;;;;4993770;28;20027;-76
2021/11/21 03:00:36;;;;;;;30.63;14.13;;;9.70;99.20;;;;;;4993194;28;20403;-76
2021/11/21 03:03:02;;;;;;;30.63;13.40;;;9.70;99.20;;;;;;4992274;28;20034;-76
2021/11/21 03:05:28;;;;;;;27.40;12.15;;;9.70;99.20;;;;;;4993312;28;20053;-76
2021/11/21 03:07:54;;;;;;;25.90;11.43;;;9.70;99.20;;;;;;4993882;28;20101;-76
2021/11/21 03:10:21;;;;;;;29.20;13.27;;;9.80;99.20;;;;;;4992467;28;20141;-76
2021/11/21 03:12:56;;;;;;;32.40;13.60;;;9.80;99.20;;;;;;4993826;28;20085;-76
2021/11/21 03:15:22;;;;;;;29.67;13.55;;;9.80;99.20;;;;;;4993560;28;20085;-75
2021/11/21 03:17:49;;;;;;;35.00;15.27;;;9.70;99.10;;;;;;4992260;28;20105;-75
2021/11/21 03:20:19;;;;;;;31.92;14.23;;;9.70;99.10;;;;;;4993806;28;20026;-74
2021/11/21 03:22:45;;;;;;;31.58;13.60;;;9.70;99.20;;;;;;4991846;28;20375;-74
2021/11/21 03:25:11;;;;;;;25.35;12.05;;;9.70;99.20;;;;;;4993908;28;20101;-75
2021/11/21 03:27:38;;;;;;;26.95;11.95;;;9.80;99.30;;;;;;4993213;28;20080;-75
2021/11/21 03:30:06;;;;;;;28.95;12.38;;;9.70;99.20;;;;;;4993440;28;20486;-77
2021/11/21 03:32:32;;;;;;;28.02;13.00;;;9.70;99.30;;;;;;4991787;28;20030;-75
2021/11/21 03:34:58;;;;;;;27.35;12.57;;;9.70;99.30;;;;;;4993524;28;20045;-75
2021/11/21 03:37:23;;;;;;;28.10;12.93;;;9.80;99.30;;;;;;4992734;28;20052;-75
2021/11/21 03:39:49;;;;;;;33.80;13.95;;;9.80;99.20;;;;;;4992292;28;20034;-75
2021/11/21 03:42:16;;;;;;;26.98;12.23;;;9.80;99.20;;;;;;4992190;28;20072;-75
2021/11/21 03:44:42;;;;;;;29.30;13.27;;;9.80;99.20;;;;;;5024542;28;20484;-75
2021/11/21 03:47:08;;;;;;;26.30;11.48;;;9.80;99.20;;;;;;4993607;28;20054;-76
2021/11/21 03:49:34;;;;;;;28.75;12.60;;;9.80;99.20;;;;;;4991457;28;20053;-76
2021/11/21 03:52:00;;;;;;;30.02;13.27;;;9.70;99.20;;;;;;4992963;28;20030;-75
2021/11/21 03:54:25;;;;;;;30.80;12.95;;;9.80;99.30;;;;;;4992586;28;20401;-75
2021/11/21 03:56:51;;;;;;;30.63;12.52;;;9.80;99.30;;;;;;4992088;28;20018;-75
2021/11/21 03:59:18;;;;;;;28.38;12.25;;;9.80;99.30;;;;;;4993084;28;20030;-75
2021/11/21 04:01:43;;;;;;;27.17;12.60;;;9.80;99.30;;;;;;4993033;28;20406;-75
2021/11/21 04:04:10;;;;;;;31.40;13.82;;;9.80;99.20;;;;;;4993097;28;20383;-75
2021/11/21 04:06:35;;;;;;;27.90;11.70;;;9.80;99.20;;;;;;4992471;28;20108;-76
2021/11/21 04:09:01;;;;;;;26.65;11.90;;;9.70;99.20;;;;;;4993343;28;20044;-76
2021/11/21 04:11:27;;;;;;;27.40;12.32;;;9.60;99.30;;;;;;4992354;28;20037;-76
2021/11/21 04:13:52;;;;;;;29.23;12.30;;;9.60;99.40;;;;;;4997156;28;20089;-75
2021/11/21 04:16:18;;;;;;;24.17;11.57;;;9.50;99.70;;;;;;4999528;28;20346;-75
2021/11/21 04:18:44;;;;;;;24.67;11.07;;;9.50;99.50;;;;;;4999037;28;20611;-75
2021/11/21 04:21:09;;;;;;;26.45;11.20;;;9.60;99.50;;;;;;4998069;28;20451;-76
2021/11/21 04:23:36;;;;;;;29.42;12.35;;;9.50;99.50;;;;;;4999003;28;20025;-76
2021/11/21 04:26:02;;;;;;;25.33;12.25;;;9.60;99.50;;;;;;4999470;28;20109;-76
2021/11/21 04:28:28;;;;;;;28.45;11.95;;;9.50;99.50;;;;;;4997574;28;20026;-76
2021/11/21 04:30:55;;;;;;;30.90;12.60;;;9.50;99.60;;;;;;4999428;28;20056;-75
2021/11/21 04:33:22;;;;;;;29.45;12.77;;;9.50;99.60;;;;;;4999326;28;20053;-75
2021/11/21 04:35:47;;;;;;;31.45;12.90;;;9.40;99.60;;;;;;4997657;28;20030;-76
2021/11/21 04:38:13;;;;;;;28.25;11.90;;;9.40;99.70;;;;;;4999112;28;20030;-75
2021/11/21 04:40:39;;;;;;;30.52;12.73;;;9.40;99.80;;;;;;4998930;28;20072;-75
2021/11/21 04:43:05;;;;;;;28.08;11.90;;;9.40;99.80;;;;;;4997966;28;20120;-75
2021/11/21 04:45:31;;;;;;;31.13;13.32;;;9.40;99.80;;;;;;4997638;28;20022;-76
2021/11/21 04:47:56;;;;;;;30.70;11.27;;;9.30;99.90;;;;;;4999217;28;20027;-75
2021/11/21 04:50:22;;;;;;;28.67;10.35;;;9.40;99.90;;;;;;4997559;28;20034;-75
2021/11/21 04:52:48;;;;;;;28.70;11.73;;;9.40;99.90;;;;;;4998479;28;20027;-75
2021/11/21 04:55:14;;;;;;;30.65;10.88;;;9.50;99.80;;;;;;4999435;28;20030;-75
2021/11/21 04:57:42;;;;;;;23.67;9.07;;;9.50;99.80;;;;;;4998366;28;20109;-75
2021/11/21 05:00:15;;;;;;;29.23;10.88;;;9.50;99.80;;;;;;4999043;28;20474;-75
2021/11/21 05:02:46;;;;;;;25.92;10.32;;;9.50;99.80;;;;;;4997516;28;20022;-75
2021/11/21 05:05:12;;;;;;;27.60;11.83;;;9.50;99.90;;;;;;4997542;28;20479;-75
2021/11/21 05:07:38;;;;;;;29.42;11.30;;;9.50;99.90;;;;;;4998343;28;20022;-75
2021/11/21 05:10:05;;;;;;;24.80;10.07;;;9.50;99.90;;;;;;4998914;28;20073;-75
2021/11/21 05:12:31;;;;;;;24.33;9.75;;;9.50;99.90;;;;;;4996907;28;20122;-75
2021/11/21 05:14:58;;;;;;;18.35;8.80;;;9.50;99.90;;;;;;4997632;28;20116;-75
2021/11/21 05:17:24;;;;;;;17.00;7.80;;;9.50;99.90;;;;;;4997845;28;20018;-77
2021/11/21 05:19:50;;;;;;;18.38;9.00;;;9.50;99.90;;;;;;4998457;28;20034;-77
2021/11/21 05:22:16;;;;;;;21.48;9.18;;;9.60;99.90;;;;;;4997678;28;20037;-77
2021/11/21 05:24:42;;;;;;;18.10;7.22;;;9.60;99.90;;;;;;4995732;28;20034;-77
2021/11/21 05:27:07;;;;;;;19.13;7.10;;;9.60;99.90;;;;;;4994305;28;20025;-78
2021/11/21 05:29:33;;;;;;;14.80;6.32;;;9.70;99.90;;;;;;4995279;28;20494;-77
2021/11/21 05:31:59;;;;;;;15.55;6.22;;;9.70;99.90;;;;;;4995803;28;20061;-77
2021/11/21 05:34:24;;;;;;;12.80;6.13;;;9.70;99.90;;;;;;4995390;28;20045;-77
2021/11/21 05:36:50;;;;;;;12.32;5.93;;;9.80;99.90;;;;;;4993913;28;20113;-77
2021/11/21 05:39:16;;;;;;;14.55;6.15;;;9.70;99.90;;;;;;4995295;28;20039;-77
2021/11/21 05:41:42;;;;;;;13.05;5.45;;;9.70;99.90;;;;;;4993838;28;20022;-77
2021/11/21 05:44:08;;;;;;;15.32;6.00;;;9.70;99.90;;;;;;4995953;28;20072;-77
2021/11/21 05:46:34;;;;;;;11.13;5.72;;;9.70;99.90;;;;;;4995022;28;20097;-77
2021/11/21 05:49:00;;;;;;;16.42;6.30;;;9.70;99.90;;;;;;4995147;28;20032;-77
2021/11/21 05:51:26;;;;;;;12.38;5.57;;;9.80;99.90;;;;;;4996584;28;20077;-77
2021/11/21 05:53:52;;;;;;;15.02;6.03;;;9.80;99.90;;;;;;4994255;28;20033;-78
2021/11/21 05:56:21;;;;;;;11.90;5.85;;;9.80;99.90;;;;;;4993765;28;20105;-77
2021/11/21 05:58:47;;;;;;;12.50;6.10;;;9.80;99.90;;;;;;4994672;28;20113;-77
2021/11/21 06:01:14;;;;;;;12.90;4.50;;;9.90;99.90;;;;;;4995225;28;20062;-77
2021/11/21 06:03:41;;;;;;;13.05;5.13;;;9.90;99.90;;;;;;4993976;28;20034;-77
2021/11/21 06:06:07;;;;;;;11.60;5.20;;;10.00;99.90;;;;;;4993692;28;20045;-78
2021/11/21 06:08:33;;;;;;;11.43;5.22;;;9.90;99.90;;;;;;4994479;28;20022;-75
2021/11/21 06:10:58;;;;;;;10.13;4.80;;;10.00;99.90;;;;;;4994776;28;20065;-75
2021/11/21 06:13:25;;;;;;;9.68;4.40;;;10.00;99.90;;;;;;4995001;28;20400;-75
2021/11/21 06:15:52;;;;;;;11.15;4.85;;;10.00;99.90;;;;;;4994547;28;20050;-75
2021/11/21 06:18:18;;;;;;;13.25;4.63;;;10.00;99.90;;;;;;4994860;28;20026;-75
2021/11/21 06:20:44;;;;;;;10.50;4.32;;;10.00;99.90;;;;;;4993198;28;20023;-75
2021/11/21 06:23:11;;;;;;;10.45;4.10;;;10.10;99.90;;;;;;4994640;28;20370;-75
2021/11/21 06:25:38;;;;;;;9.38;4.30;;;10.00;99.90;;;;;;4994422;28;20014;-75
2021/11/21 06:28:04;;;;;;;9.63;4.63;;;10.00;99.90;;;;;;4993397;28;20014;-75
2021/11/21 06:30:29;;;;;;;10.25;4.45;;;10.00;99.90;;;;;;4993531;28;20076;-75
2021/11/21 06:32:55;;;;;;;9.52;4.32;;;10.00;99.90;;;;;;4992885;28;20023;-75
2021/11/21 06:35:21;;;;;;;9.55;3.75;;;10.00;99.90;;;;;;4993264;28;20022;-76
2021/11/21 06:37:46;;;;;;;8.73;3.95;;;10.10;99.90;;;;;;4989321;28;20030;-76
2021/11/21 06:40:14;;;;;;;7.72;3.47;;;10.10;99.90;;;;;;4993021;28;20141;-76
2021/11/21 06:42:42;;;;;;;6.93;2.92;;;10.10;99.90;;;;;;4992477;28;20038;-76
2021/11/21 06:45:08;;;;;;;8.48;3.25;;;10.10;99.90;;;;;;4992693;28;20025;-75
2021/11/21 06:47:34;;;;;;;8.23;3.50;;;10.00;99.90;;;;;;4994226;28;20049;-76
2021/11/21 06:50:01;;;;;;;7.63;3.50;;;10.00;99.90;;;;;;4993684;28;20536;-76
2021/11/21 06:52:30;;;;;;;7.78;3.47;;;10.00;99.90;;;;;;4992589;28;20057;-76
2021/11/21 06:54:56;;;;;;;8.50;3.40;;;10.00;99.90;;;;;;4993595;28;20081;-78
2021/11/21 06:57:22;;;;;;;7.20;2.90;;;9.90;99.90;;;;;;4992333;28;20018;-76
2021/11/21 06:59:48;;;;;;;7.13;3.58;;;10.00;99.90;;;;;;4992375;28;20022;-77
2021/11/21 07:02:14;;;;;;;7.75;3.17;;;10.00;99.90;;;;;;4994088;28;20014;-76
2021/11/21 07:04:40;;;;;;;8.80;3.70;;;10.00;99.90;;;;;;4993365;28;20098;-76
2021/11/21 07:07:09;;;;;;;9.05;3.88;;;10.00;99.90;;;;;;4993371;28;20125;-76
2021/11/21 07:09:36;;;;;;;9.07;3.92;;;10.10;99.90;;;;;;4992660;28;20034;-76
2021/11/21 07:12:02;;;;;;;7.70;3.45;;;10.10;99.90;;;;;;4993462;28;20113;-76
2021/11/21 07:14:28;;;;;;;7.00;3.13;;;10.10;99.90;;;;;;4992678;28;20026;-76
2021/11/21 07:16:54;;;;;;;10.32;4.22;;;10.10;99.90;;;;;;4993088;28;20499;-76
2021/11/21 07:19:19;;;;;;;9.30;3.72;;;10.10;99.90;;;;;;4992167;28;20029;-76
2021/11/21 07:21:45;;;;;;;9.98;3.92;;;10.10;99.90;;;;;;4992511;28;20045;-76
2021/11/21 07:24:12;;;;;;;10.18;4.22;;;10.10;99.90;;;;;;4992577;28;20018;-76
2021/11/21 07:26:39;;;;;;;8.07;3.65;;;10.10;99.90;;;;;;4992869;28;20566;-76
2021/11/21 07:29:05;;;;;;;8.48;4.10;;;10.00;99.90;;;;;;4993564;28;20030;-76
2021/11/21 07:31:32;;;;;;;13.50;4.50;;;10.10;99.90;;;;;;4993764;28;20050;-76
2021/11/21 07:33:57;;;;;;;9.20;4.80;;;10.10;99.90;;;;;;4993256;28;20023;-76
2021/11/21 07:36:23;;;;;;;8.27;3.50;;;10.10;99.90;;;;;;4993425;28;20031;-76
2021/11/21 07:38:49;;;;;;;10.05;4.22;;;10.10;99.90;;;;;;4995025;28;20081;-76
2021/11/21 07:41:15;;;;;;;11.13;4.43;;;10.20;99.90;;;;;;4997200;28;20035;-76
2021/11/21 07:43:42;;;;;;;9.27;3.80;;;10.10;99.90;;;;;;4997138;28;20030;-76
2021/11/21 07:46:08;;;;;;;8.52;3.55;;;10.10;99.90;;;;;;4996038;28;20018;-76
2021/11/21 07:48:34;;;;;;;7.78;2.88;;;10.10;99.90;;;;;;4995667;28;20022;-76
2021/11/21 07:51:00;;;;;;;10.90;3.40;;;10.20;99.90;;;;;;4995302;28;20060;-77
2021/11/21 07:53:27;;;;;;;7.18;2.88;;;10.10;99.90;;;;;;4994613;28;20022;-77
2021/11/21 07:55:53;;;;;;;6.35;2.90;;;10.10;99.90;;;;;;4993570;28;20040;-77
2021/11/21 07:58:20;;;;;;;5.75;2.72;;;10.10;99.90;;;;;;4992306;28;20057;-77
2021/11/21 08:00:46;;;;;;;3.80;1.85;;;10.20;99.90;;;;;;4991661;28;20457;-77
2021/11/21 08:03:12;;;;;;;5.88;2.13;;;10.20;99.90;;;;;;4993309;28;20015;-78
2021/11/21 08:05:38;;;;;;;5.20;1.83;;;10.20;99.90;;;;;;4993340;28;20042;-78
2021/11/21 08:08:05;;;;;;;6.72;2.00;;;10.20;99.90;;;;;;4991356;28;20022;-79
2021/11/21 08:10:31;;;;;;;4.25;1.50;;;10.20;99.90;;;;;;4988840;28;20034;-79
2021/11/21 08:12:56;;;;;;;5.45;1.75;;;10.20;99.90;;;;;;4990972;28;20019;-79
2021/11/21 08:15:22;;;;;;;5.68;1.95;;;10.20;99.90;;;;;;4990236;28;20480;-78
2021/11/21 08:17:48;;;;;;;5.63;1.73;;;10.20;99.80;;;;;;4990943;28;20026;-79
2021/11/21 08:20:14;;;;;;;2.38;1.17;;;10.10;99.90;;;;;;4991613;28;20033;-81
2021/11/21 08:22:40;;;;;;;6.50;1.50;;;10.10;99.90;;;;;;4989415;28;20466;-78
2021/11/21 08:25:06;;;;;;;2.80;1.55;;;10.10;99.90;;;;;;4990592;28;20042;-77
2021/11/21 08:27:32;;;;;;;4.38;1.63;;;10.10;99.90;;;;;;4989480;28;20076;-78
2021/11/21 08:29:58;;;;;;;3.42;1.20;;;10.10;99.90;;;;;;4989549;28;20058;-81
2021/11/21 08:32:23;;;;;;;2.67;1.20;;;10.10;99.90;;;;;;4989201;28;20037;-78
2021/11/21 08:34:49;;;;;;;5.45;1.40;;;10.10;99.90;;;;;;4988192;28;20018;-77
2021/11/21 08:37:15;;;;;;;3.03;0.98;;;10.20;99.90;;;;;;4989288;28;20018;-78
2021/11/21 08:39:40;;;;;;;4.80;1.17;;;10.20;99.90;;;;;;4989398;28;20406;-77
2021/11/21 08:42:06;;;;;;;6.10;1.20;;;10.10;99.80;;;;;;4990281;28;20429;-78
2021/11/21 08:44:32;;;;;;;4.05;1.13;;;10.20;99.90;;;;;;4990983;28;20027;-78
2021/11/21 08:46:58;;;;;;;3.50;1.33;;;10.20;99.80;;;;;;4989044;28;20018;-74
2021/11/21 08:49:24;;;;;;;4.55;1.20;;;10.20;99.80;;;;;;4989983;28;20072;-78
2021/11/21 08:51:50;;;;;;;3.88;1.00;;;10.20;99.70;;;;;;4990242;28;20030;-77
2021/11/21 08:54:17;;;;;;;7.00;1.30;;;10.20;99.70;;;;;;4991007;28;20110;-75
2021/11/21 08:56:47;;;;;;;4.70;0.90;;;10.20;99.70;;;;;;4992600;28;20103;-75
2021/11/21 08:59:14;;;;;;;5.15;1.20;;;10.30;99.70;;;;;;4991296;28;20034;-75
2021/11/21 09:01:42;;;;;;;5.28;1.08;;;10.30;99.70;;;;;;4996109;28;20015;-75
2021/11/21 09:04:08;;;;;;;4.95;1.00;;;10.30;99.60;;;;;;4994439;28;20061;-75
2021/11/21 09:06:35;;;;;;;5.60;1.27;;;10.40;99.60;;;;;;4995999;28;20128;-75
2021/11/21 09:09:01;;;;;;;6.80;1.77;;;10.30;99.80;;;;;;4995481;28;20197;-75
2021/11/21 09:11:26;;;;;;;5.90;1.10;;;10.30;99.50;;;;;;4996114;28;20030;-75
2021/11/21 09:13:52;;;;;;;2.80;1.25;;;10.30;99.60;;;;;;4995303;28;20041;-75
2021/11/21 09:16:19;;;;;;;3.63;1.08;;;10.30;99.50;;;;;;4996218;28;20068;-75
2021/11/21 09:18:45;;;;;;;4.68;1.17;;;10.40;99.50;;;;;;4994690;28;20060;-75
2021/11/21 09:21:10;;;;;;;5.05;1.27;;;10.40;99.50;;;;;;4996006;28;20069;-75
2021/11/21 09:23:37;;;;;;;7.93;1.30;;;10.40;99.50;;;;;;4995656;28;20025;-75
2021/11/21 09:26:04;;;;;;;3.85;0.88;;;10.40;99.50;;;;;;4994077;28;20458;-74
2021/11/21 09:28:30;;;;;;;3.42;1.20;;;10.40;99.50;;;;;;4995754;28;20081;-75
2021/11/21 09:30:56;;;;;;;5.63;1.00;;;10.30;99.50;;;;;;4994021;28;20447;-75
2021/11/21 09:33:22;;;;;;;4.13;1.27;;;10.30;99.50;;;;;;4995704;28;20049;-75
2021/11/21 09:35:48;;;;;;;3.20;1.02;;;10.30;99.50;;;;;;4995116;28;20077;-75
2021/11/21 09:38:15;;;;;;;4.40;0.90;;;10.30;99.40;;;;;;4995852;28;20022;-75
2021/11/21 09:40:40;;;;;;;2.88;1.10;;;10.30;99.40;;;;;;4994297;28;20186;-75
2021/11/21 09:43:06;;;;;;;3.20;1.02;;;10.30;99.40;;;;;;4995395;28;20101;-74
2021/11/21 09:45:32;;;;;;;5.88;1.50;;;10.30;99.40;;;;;;4994149;28;20069;-75
2021/11/21 09:48:00;;;;;;;2.72;0.95;;;10.30;99.40;;;;;;4993716;28;20019;-75
2021/11/21 09:50:29;;;;;;;3.83;1.10;;;10.20;99.40;;;;;;4995280;28;20049;-75
2021/11/21 09:52:55;;;;;;;5.05;1.25;;;10.20;99.40;;;;;;4994997;28;20046;-75
2021/11/21 09:55:21;;;;;;;2.58;1.00;;;10.10;99.50;;;;;;4995156;28;20018;-75
2021/11/21 09:57:48;;;;;;;3.22;0.95;;;10.10;99.60;;;;;;4993938;28;20065;-75
2021/11/21 10:00:16;;;;;;;2.97;0.85;;;10.00;99.60;;;;;;4995523;28;20033;-75
2021/11/21 10:02:57;;;;;;;5.82;1.17;;;9.90;99.70;;;;;;4993831;28;20045;-74
2021/11/21 10:05:28;;;;;;;5.60;0.98;;;9.90;99.70;;;;;;4994723;28;20046;-75
2021/11/21 10:08:04;;;;;;;3.38;0.90;;;9.90;99.70;;;;;;4993411;28;20042;-74
2021/11/21 10:10:36;;;;;;;5.38;1.00;;;9.90;99.70;;;;;;4994625;28;20034;-75
2021/11/21 10:13:02;;;;;;;5.90;1.05;;;9.80;99.70;;;;;;4993340;28;20362;-75
2021/11/21 10:15:27;;;;;;;3.25;0.80;;;9.80;99.70;;;;;;4995059;28;20439;-75
2021/11/21 10:17:56;;;;;;;3.90;0.82;;;9.80;99.80;;;;;;4994707;28;20026;-75
2021/11/21 10:20:29;;;;;;;4.25;0.98;;;9.80;99.80;;;;;;4993806;28;20026;-75
2021/11/21 10:23:10;;;;;;;3.20;1.35;;;9.70;99.70;;;;;;4994381;28;20019;-74
2021/11/21 10:25:42;;;;;;;4.55;0.77;;;9.60;99.80;;;;;;4994854;28;20024;-74
2021/11/21 10:28:15;;;;;;;3.78;1.17;;;9.60;99.80;;;;;;4994299;28;20026;-75
2021/11/21 10:31:18;;;;;;;3.25;0.93;;;9.50;99.80;;;;;;4993481;28;20549;-74
2021/11/21 10:33:53;;;;;;;5.30;1.33;;;9.50;99.80;;;;;;4976100;28;20038;-74
2021/11/21 10:36:30;;;;;;;3.67;1.10;;;9.50;99.70;;;;;;4994242;28;20113;-74
2021/11/21 10:39:05;;;;;;;4.43;1.00;;;9.60;99.70;;;;;;4993830;28;20018;-74
2021/11/21 10:41:37;;;;;;;3.20;1.02;;;9.50;99.70;;;;;;4994521;28;20018;-74
2021/11/21 10:44:07;;;;;;;5.38;1.10;;;9.60;99.90;;;;;;4992724;28;20125;-74
2021/11/21 10:46:39;;;;;;;3.67;1.05;;;9.60;99.60;;;;;;4992869;28;20015;-74
2021/11/21 10:49:16;;;;;;;1.67;0.88;;;9.60;99.50;;;;;;4992452;28;20124;-74
2021/11/21 10:51:43;;;;;;;5.93;0.95;;;9.70;99.60;;;;;;4993022;28;20363;-76
2021/11/21 10:54:40;;;;;;;3.85;1.02;;;9.60;99.50;;;;;;4993758;28;20046;-75
2021/11/21 10:57:09;;;;;;;1.88;0.70;;;9.60;99.50;;;;;;4993800;28;20022;-75
2021/11/21 10:59:49;;;;;;;3.42;1.20;;;9.60;99.50;;;;;;4994133;28;20029;-75
2021/11/21 11:02:31;;;;;;;2.13;0.90;;;9.70;99.50;;;;;;4993632;28;20045;-75
2021/11/21 11:05:14;;;;;;;3.47;1.30;;;9.70;99.50;;;;;;4993390;28;20014;-75
2021/11/21 11:07:44;;;;;;;2.53;0.95;;;9.80;99.40;;;;;;4992874;28;20141;-75
2021/11/21 11:10:17;;;;;;;4.28;1.20;;;9.80;99.40;;;;;;4993295;28;20092;-74
2021/11/21 11:12:46;;;;;;;9.27;1.33;;;10.00;99.50;;;;;;4994134;28;20015;-74
2021/11/21 11:15:12;;;;;;;3.80;1.30;;;10.10;99.40;;;;;;4993111;28;20101;-75
2021/11/21 11:17:39;;;;;;;7.13;1.63;;;10.30;99.30;;;;;;4994001;28;20022;-75
2021/11/21 11:20:08;;;;;;;2.50;0.98;;;10.40;99.20;;;;;;4993172;28;20026;-75
2021/11/21 11:22:34;;;;;;;3.05;1.17;;;10.60;99.10;;;;;;4993111;28;20023;-76
2021/11/21 11:25:03;;;;;;;3.00;1.17;;;10.70;98.90;;;;;;4991936;28;20089;-76
2021/11/21 11:27:32;;;;;;;3.28;1.30;;;10.80;98.70;;;;;;4992312;28;20019;-75
2021/11/21 11:29:58;;;;;;;8.48;1.23;;;10.80;98.60;;;;;;4993248;28;20085;-74
2021/11/21 11:32:37;;;;;;;7.13;1.17;;;10.90;98.80;;;;;;4993302;28;20018;-74
2021/11/21 11:35:18;;;;;;;2.80;1.02;;;10.90;98.40;;;;;;4991841;28;20479;-75
2021/11/21 11:37:47;;;;;;;1.98;0.80;;;10.90;98.40;;;;;;4993554;28;20023;-75
2021/11/21 11:41:02;;;;;;;4.22;0.82;;;10.90;98.40;;;;;;4991600;28;20355;-75
2021/11/21 11:43:38;;;;;;;4.32;1.15;;;10.90;98.30;;;;;;4992975;28;20034;-75
2021/11/21 11:46:07;;;;;;;4.20;1.00;;;10.90;98.20;;;;;;4992990;28;20030;-75
2021/11/21 11:49:00;;;;;;;1.85;0.55;;;10.90;98.20;;;;;;4992045;28;20024;-74
2021/11/21 11:51:33;;;;;;;4.45;0.88;;;11.00;98.00;;;;;;4992729;28;20057;-75
2021/11/21 11:54:21;;;;;;;5.63;0.80;;;11.00;98.00;;;;;;4992822;28;20018;-75
2021/11/21 11:56:50;;;;;;;4.05;0.98;;;11.00;97.90;;;;;;4991915;28;20114;-75
2021/11/21 11:59:32;;;;;;;3.17;0.93;;;11.10;97.80;;;;;;4991370;28;20023;-75
2021/11/21 12:02:05;;;;;;;;;;;11.20;97.60;;;;;;4993005;28;20094;-75
2021/11/21 12:04:30;;;;;;;4.25;1.23;;;11.20;97.50;;;;;;4993220;28;20004;-75
2021/11/21 12:06:58;;;;;;;3.38;0.80;;;11.30;97.40;;;;;;4991625;28;20418;-74
2021/11/21 12:09:29;;;;;;;3.92;1.33;;;11.40;97.10;;;;;;4993145;28;20041;-74
2021/11/21 12:11:57;;;;;;;1.42;0.70;;;11.50;97.00;;;;;;4993072;28;20027;-75
2021/11/21 12:14:43;;;;;;;1.58;0.70;;;11.60;96.70;;;;;;4993003;28;20022;-75
2021/11/21 12:17:11;;;;;;;1.35;0.70;;;11.60;96.60;;;;;;4992612;28;20076;-75
2021/11/21 12:19:43;;;;;;;3.33;0.52;;;11.70;96.40;;;;;;4991847;28;20030;-75
2021/11/21 12:22:24;;;;;;;2.42;0.70;;;11.70;96.30;;;;;;4991992;28;20105;-74
2021/11/21 12:24:54;;;;;;;3.85;0.85;;;11.70;96.30;;;;;;4992910;28;20025;-75
2021/11/21 12:27:26;;;;;;;0.68;0.57;;;11.60;96.50;;;;;;4992370;28;20080;-75
2021/11/21 12:30:12;;;;;;;3.60;0.80;;;11.50;96.60;;;;;;4992807;28;20023;-75
2021/11/21 12:32:50;;;;;;;3.85;0.80;;;11.50;96.60;;;;;;4992908;28;20018;-74
2021/11/21 12:35:39;;;;;;;4.32;0.70;;;11.50;96.50;;;;;;4995946;28;20454;-75
2021/11/21 12:38:21;;;;;;;2.03;0.50;;;11.40;96.40;;;;;;4995124;28;20022;-75
2021/11/21 12:40:52;;;;;;;1.45;0.98;;;11.40;96.40;;;;;;4995376;28;20029;-76
2021/11/21 12:43:20;;;;;;;3.65;0.82;;;11.50;96.20;;;;;;4996096;28;20015;-75
2021/11/21 12:45:56;;;;;;;3.60;0.90;;;11.60;96.10;;;;;;4996610;28;20018;-75
2021/11/21 12:48:25;;;;;;;1.98;0.90;;;11.70;95.80;;;;;;4996114;28;20025;-75